EKYT/AAL METAR and TAF weather

Enter ICAO airport designator
Station Type Date Time Source
EKYT METAR 2022/05/24 11:20 UTC NOAA

EKYT 241120Z AUTO 22012KT 9999 FEW016/// BKN023/// OVC027/// 14/12 Q0999


Station Type Date Time Source
EKYT Decoded METAR 2022/05/24 11:20 UTC NOAA

Aalborg, Denmark (EKYT) 57-06N 009-51E 13M
May 24, 2022 - 07:20 AM EDT / 2022.05.24 1120 UTC
Wind: from the SW (220 degrees) at 14 MPH (12 KT):0
Visibility: greater than 7 mile(s):0
Sky conditions: overcast
Temperature: 57 F (14 C)
Dew Point: 53 F (12 C)
Relative Humidity: 87%
Pressure (altimeter): 29.50 in. Hg (0999 hPa)
ob: EKYT 241120Z AUTO 22012KT 9999 FEW016/// BKN023/// OVC027/// 14/12 Q0999
cycle: 11

Station Type Date Time Source
EKYT TAF 2022/05/24 12:32 UTC NOAA

TAF EKYT 241112Z 2412/2512 22012KT 9999 BKN018
TEMPO 2414/2512 20012G22KT 7000 -SHRA BKN012 SCT020CB

Example: see airport list